Time;durP1;ratioP1;P1;durP2;ratioP2;P2;SDS_P1;SDS_P2;PMS_P1;PMS_P2;Temp;Humidity;BMP_temperature;BMP_pressure;BME280_temperature;BME280_humidity;BME280_pressure;Samples;Min_cycle;Max_cycle;Signal;HPM_P1;HPM_P2
2021/06/05 00:00:43;;;;;;;6.38;5.80;;;;;;;19.59;84.15;95955.03;5002944;28;20219;-85
2021/06/05 00:03:10;;;;;;;6.55;6.05;;;;;;;19.61;84.04;95967.88;5002617;28;20225;-86
2021/06/05 00:05:40;;;;;;;7.60;6.85;;;;;;;19.72;82.86;95958.47;5002413;28;20180;-85
2021/06/05 00:08:07;;;;;;;6.93;6.22;;;;;;;19.81;82.67;95957.94;5002097;28;20227;-83
2021/06/05 00:10:37;;;;;;;7.10;6.45;;;;;;;19.86;82.47;95959.84;5002342;28;20209;-83
2021/06/05 00:13:05;;;;;;;6.28;5.75;;;;;;;19.96;82.42;95963.50;4989839;28;20211;-84
2021/06/05 00:15:34;;;;;;;6.80;6.18;;;;;;;20.07;81.80;95964.53;5002135;28;20208;-84
2021/06/05 00:18:02;;;;;;;7.20;6.60;;;;;;;20.12;80.59;95967.28;4988436;28;20227;-83
2021/06/05 00:20:29;;;;;;;7.65;6.40;;;;;;;20.09;80.66;95957.25;5003345;28;20246;-83
2021/06/05 00:22:56;;;;;;;6.53;6.03;;;;;;;19.80;83.51;95958.16;5001050;28;20267;-84
2021/06/05 00:25:23;;;;;;;7.00;6.40;;;;;;;19.57;84.35;95964.91;5002321;28;20208;-84
2021/06/05 00:27:49;;;;;;;7.88;6.30;;;;;;;19.64;83.63;95975.25;5002730;28;20220;-83
2021/06/05 00:30:16;;;;;;;6.13;5.47;;;;;;;19.65;84.09;95972.41;5001369;28;20271;-84
2021/06/05 00:32:42;;;;;;;6.45;5.95;;;;;;;19.77;82.90;95969.03;5000490;28;20733;-84
2021/06/05 00:35:10;;;;;;;6.45;5.95;;;;;;;19.83;82.55;95958.47;5001877;28;20204;-84
2021/06/05 00:37:37;;;;;;;6.43;5.93;;;;;;;19.92;81.87;95964.97;5000610;28;20228;-82
2021/06/05 00:40:04;;;;;;;6.80;6.20;;;;;;;19.95;81.58;95958.50;5001854;28;20222;-83
2021/06/05 00:42:30;;;;;;;6.60;6.10;;;;;;;19.94;81.44;95960.31;5001388;28;20203;-83
2021/06/05 00:44:56;;;;;;;8.15;6.03;;;;;;;19.98;81.30;95955.44;5001652;28;20203;-85
2021/06/05 00:47:22;;;;;;;5.85;5.40;;;;;;;20.09;80.91;95961.69;5001493;28;20303;-83
2021/06/05 00:49:48;;;;;;;6.65;6.07;;;;;;;20.14;80.61;95960.00;5001182;28;20713;-83
2021/06/05 00:52:19;;;;;;;6.57;5.97;;;;;;;20.08;81.04;95960.09;5000832;28;20208;-84
2021/06/05 00:54:45;;;;;;;6.45;5.95;;;;;;;20.07;80.89;95961.13;5001722;28;20199;-84
2021/06/05 00:57:12;;;;;;;6.07;5.60;;;;;;;19.99;81.36;95963.06;4999641;28;20223;-84
2021/06/05 00:59:38;;;;;;;6.47;5.28;;;;;;;20.05;81.03;95960.53;5000985;28;20207;-84
2021/06/05 01:02:05;;;;;;;5.68;5.18;;;;;;;20.05;80.66;95956.13;5001266;28;20218;-85
2021/06/05 01:04:32;;;;;;;5.63;5.18;;;;;;;20.08;80.18;95955.66;5000899;28;20339;-84
2021/06/05 01:07:04;;;;;;;5.75;5.18;;;;;;;20.11;79.43;95960.44;5000261;28;20219;-84
2021/06/05 01:09:36;;;;;;;5.75;5.22;;;;;;;20.15;79.05;95960.78;5001941;28;20719;-85
2021/06/05 01:12:07;;;;;;;5.72;5.22;;;;;;;20.16;77.82;95965.78;5003065;28;20188;-86
2021/06/05 01:14:36;;;;;;;5.53;4.85;;;;;;;20.13;76.93;95963.63;4985049;28;20578;-84
2021/06/05 01:17:06;;;;;;;5.38;4.88;;;;;;;20.14;76.75;95967.03;4992556;28;20230;-83
2021/06/05 01:19:51;;;;;;;4.70;4.40;;;;;;;20.11;76.13;95967.50;5008515;28;20192;-82
2021/06/05 01:22:26;;;;;;;4.82;4.30;;;;;;;20.05;76.38;95971.78;5009053;28;20254;-84
2021/06/05 01:25:10;;;;;;;5.15;4.65;;;;;;;20.05;76.36;95968.38;5008678;28;20250;-84
2021/06/05 01:27:44;;;;;;;5.40;4.90;;;;;;;20.06;76.09;95965.53;4989167;28;20231;-84
2021/06/05 01:30:15;;;;;;;5.28;4.78;;;;;;;20.00;76.44;95969.09;5009054;28;20226;-83
2021/06/05 01:32:42;;;;;;;5.07;4.68;;;;;;;19.98;76.46;95964.09;5005803;28;20226;-84
2021/06/05 01:35:14;;;;;;;6.07;4.97;;;;;;;19.99;76.40;95962.25;5003384;28;20204;-83
2021/06/05 01:37:41;;;;;;;5.57;4.80;;;;;;;19.96;76.38;95967.94;5003538;28;20223;-84
2021/06/05 01:40:10;;;;;;;5.50;5.10;;;;;;;19.86;76.82;95978.94;5003167;28;20269;-85
2021/06/05 01:42:40;;;;;;;5.22;4.78;;;;;;;19.80;77.07;95977.25;5002508;28;20290;-84
2021/06/05 01:45:12;;;;;;;4.80;4.40;;;;;;;19.79;77.04;95987.91;4983319;28;20211;-85
2021/06/05 01:47:39;;;;;;;5.18;4.78;;;;;;;19.65;76.98;95990.69;4984487;28;20715;-83
2021/06/05 01:50:06;;;;;;;5.70;5.30;;;;;;;19.64;77.27;95981.25;5003011;28;20582;-86
2021/06/05 01:52:35;;;;;;;5.80;5.30;;;;;;;19.66;76.95;95979.22;5002216;28;20219;-83
2021/06/05 01:55:07;;;;;;;6.60;6.10;;;;;;;19.62;76.74;95985.94;5003684;28;20261;-85
2021/06/05 01:57:36;;;;;;;5.80;5.30;;;;;;;19.63;76.94;95981.47;5003243;28;20243;-84
2021/06/05 02:00:09;;;;;;;5.75;5.35;;;;;;;19.59;76.99;95989.00;5002399;28;20203;-84
2021/06/05 02:02:35;;;;;;;5.68;5.07;;;;;;;19.49;77.48;95993.13;5002561;28;20230;-85
2021/06/05 02:05:01;;;;;;;5.72;5.32;;;;;;;19.44;77.69;96004.22;5002912;28;20654;-83
2021/06/05 02:07:27;;;;;;;6.22;5.63;;;;;;;19.43;77.95;95988.81;4983323;28;20231;-83
2021/06/05 02:09:53;;;;;;;6.00;5.50;;;;;;;19.37;78.37;95993.09;5001995;28;20211;-84
2021/06/05 02:12:23;;;;;;;6.00;5.40;;;;;;;19.34;78.26;95998.75;5002821;28;20286;-85
2021/06/05 02:14:54;;;;;;;5.82;5.35;;;;;;;19.23;78.80;96000.31;5002456;28;20211;-83
2021/06/05 02:17:23;;;;;;;6.03;5.50;;;;;;;19.18;79.48;95997.53;5001728;28;20233;-84
2021/06/05 02:19:57;;;;;;;6.18;5.50;;;;;;;19.12;79.42;96005.44;5001746;28;20203;-85
2021/06/05 02:22:27;;;;;;;6.43;5.82;;;;;;;19.02;80.28;96002.56;5002523;28;20213;-85
2021/06/05 02:24:56;;;;;;;6.13;5.63;;;;;;;18.91;80.99;95997.06;5001722;28;20195;-83
2021/06/05 02:27:24;;;;;;;6.03;5.53;;;;;;;18.98;80.43;96000.41;5002058;28;20243;-85
2021/06/05 02:29:52;;;;;;;6.63;6.13;;;;;;;18.90;80.67;96000.66;4999691;28;20214;-84
2021/06/05 02:32:24;;;;;;;6.40;5.80;;;;;;;18.98;79.90;96003.00;4998106;28;20238;-86
2021/06/05 02:34:52;;;;;;;6.65;6.15;;;;;;;18.99;79.98;96006.41;5000122;28;20209;-86
2021/06/05 02:37:23;;;;;;;7.13;6.53;;;;;;;19.03;79.48;96007.56;4998360;28;20845;-85
2021/06/05 02:39:52;;;;;;;6.55;5.85;;;;;;;19.04;79.41;96005.75;4980416;28;20215;-84
2021/06/05 02:42:20;;;;;;;7.35;6.75;;;;;;;19.10;79.32;96012.69;4995135;28;20230;-85
2021/06/05 02:44:49;;;;;;;7.03;6.53;;;;;;;19.09;79.17;96001.47;4999379;28;20195;-85
2021/06/05 02:47:16;;;;;;;7.55;7.05;;;;;;;19.10;79.32;96010.09;4998994;28;20227;-86
2021/06/05 02:49:44;;;;;;;8.60;7.63;;;;;;;19.04;79.34;96003.94;4999564;28;20223;-85
2021/06/05 02:52:28;;;;;;;8.80;8.10;;;;;;;19.05;79.44;96009.97;4999000;28;20214;-86
2021/06/05 02:54:54;;;;;;;8.82;8.02;;;;;;;19.05;79.62;96009.97;4999168;28;20207;-87
2021/06/05 02:57:20;;;;;;;8.77;8.05;;;;;;;19.06;79.80;96016.75;4999038;28;20254;-85
2021/06/05 02:59:46;;;;;;;8.98;8.18;;;;;;;19.06;79.68;96014.16;4998480;28;20192;-86
2021/06/05 03:02:12;;;;;;;9.15;8.35;;;;;;;19.08;79.38;96014.72;4998553;28;20242;-85
2021/06/05 03:04:38;;;;;;;10.32;8.50;;;;;;;19.04;80.03;96016.19;4998684;28;20210;-86
2021/06/05 03:07:06;;;;;;;9.18;8.38;;;;;;;18.92;80.55;96016.91;4998529;28;20222;-86
2021/06/05 03:09:32;;;;;;;8.45;7.80;;;;;;;18.94;80.30;96017.50;5000091;28;20203;-83
2021/06/05 03:11:58;;;;;;;8.85;7.95;;;;;;;19.00;79.94;96018.44;4999609;28;20210;-85
2021/06/05 03:14:24;;;;;;;8.98;8.23;;;;;;;18.95;80.04;96024.31;4999584;28;20217;-85
2021/06/05 03:16:50;;;;;;;8.65;7.95;;;;;;;19.02;79.31;96019.03;4999018;28;20265;-85
2021/06/05 03:19:16;;;;;;;8.50;7.70;;;;;;;18.98;79.29;96023.88;5000104;28;20203;-84
2021/06/05 03:21:42;;;;;;;8.23;7.53;;;;;;;18.96;79.40;96027.72;5002606;28;20434;-84
2021/06/05 03:24:09;;;;;;;8.27;7.57;;;;;;;18.93;79.16;96026.34;5002880;28;20224;-84
2021/06/05 03:26:36;;;;;;;7.55;6.95;;;;;;;18.93;78.96;96015.91;5003502;28;20223;-85
2021/06/05 03:29:02;;;;;;;8.00;7.30;;;;;;;18.96;78.45;96023.28;5002543;28;20199;-83
2021/06/05 03:31:28;;;;;;;8.40;6.90;;;;;;;19.03;78.12;96025.03;5001813;28;20460;-84
2021/06/05 03:33:54;;;;;;;8.02;7.22;;;;;;;19.09;77.29;96029.38;5009871;28;20270;-85
2021/06/05 03:36:21;;;;;;;7.38;6.68;;;;;;;19.10;77.27;96026.53;5013381;28;20233;-86
2021/06/05 03:38:47;;;;;;;7.32;6.63;;;;;;;19.11;76.83;96032.56;5020699;28;20203;-86
2021/06/05 03:41:16;;;;;;;7.57;6.90;;;;;;;19.15;76.64;96024.09;5002377;28;20223;-84
2021/06/05 03:43:42;;;;;;;7.15;6.45;;;;;;;19.09;76.60;96024.94;5002332;28;20208;-85
2021/06/05 03:46:09;;;;;;;7.28;6.57;;;;;;;19.09;76.17;96019.72;5001588;28;20733;-84
2021/06/05 03:48:35;;;;;;;6.93;6.22;;;;;;;19.08;76.37;96027.78;5001861;28;20294;-83
2021/06/05 03:51:01;;;;;;;6.63;6.10;;;;;;;19.09;76.22;96030.16;5000240;28;20223;-84
2021/06/05 03:53:27;;;;;;;6.35;5.82;;;;;;;19.13;75.94;96033.94;5001726;28;20203;-84
2021/06/05 03:55:55;;;;;;;6.63;6.13;;;;;;;19.12;76.14;96034.16;5002042;28;20201;-85
2021/06/05 03:58:27;;;;;;;6.50;6.00;;;;;;;19.11;76.00;96030.75;5002325;28;20219;-82
2021/06/05 04:00:54;;;;;;;5.97;5.47;;;;;;;19.12;75.84;96031.56;5001029;28;20622;-85
2021/06/05 04:03:20;;;;;;;6.97;5.85;;;;;;;19.09;75.85;96035.38;5000761;28;20204;-84
2021/06/05 04:05:46;;;;;;;6.03;5.53;;;;;;;19.10;76.32;96036.19;5000969;28;20230;-83
2021/06/05 04:08:12;;;;;;;6.40;5.80;;;;;;;19.06;76.03;96033.22;5000950;28;20270;-83
2021/06/05 04:10:39;;;;;;;6.15;5.50;;;;;;;19.10;76.07;96033.56;5001130;28;20207;-84
2021/06/05 04:13:05;;;;;;;6.18;5.68;;;;;;;19.12;75.80;96028.94;5000540;28;20207;-84
2021/06/05 04:15:34;;;;;;;6.50;5.90;;;;;;;19.11;75.72;96033.38;5000081;28;20196;-83
2021/06/05 04:18:04;;;;;;;6.25;5.75;;;;;;;19.13;75.39;96028.72;5001030;28;20227;-83
2021/06/05 04:20:31;;;;;;;6.47;5.88;;;;;;;19.21;75.28;96036.28;5000237;28;20238;-85
2021/06/05 04:22:57;;;;;;;5.78;5.30;;;;;;;19.23;75.53;96031.63;5000356;28;20199;-84
2021/06/05 04:25:24;;;;;;;6.72;5.90;;;;;;;19.27;75.13;96030.16;4999847;28;20204;-83
2021/06/05 04:27:50;;;;;;;6.00;5.50;;;;;;;19.33;75.07;96036.31;5000234;28;20215;-83
2021/06/05 04:30:16;;;;;;;6.63;6.03;;;;;;;19.33;75.29;96033.72;5000026;28;20207;-83
2021/06/05 04:32:44;;;;;;;6.20;5.60;;;;;;;19.37;74.80;96036.69;4999311;28;20220;-84
2021/06/05 04:35:12;;;;;;;5.63;5.22;;;;;;;19.42;74.79;96034.22;4999964;28;20195;-84
2021/06/05 04:37:38;;;;;;;6.10;5.50;;;;;;;19.40;74.87;96036.25;4999754;28;20226;-83
2021/06/05 04:40:06;;;;;;;6.10;5.50;;;;;;;19.49;74.15;96035.72;4999576;28;20589;-82
2021/06/05 04:42:32;;;;;;;5.75;5.25;;;;;;;19.52;74.20;96037.13;4999851;28;20223;-83
2021/06/05 04:44:58;;;;;;;9.38;5.25;;;;;;;19.62;74.10;96037.41;5000103;28;20638;-83
2021/06/05 04:47:24;;;;;;;6.57;5.88;;;;;;;19.72;73.74;96040.25;5000579;28;20230;-85
2021/06/05 04:49:51;;;;;;;5.78;5.18;;;;;;;19.74;73.07;96040.03;5001026;28;20215;-84
2021/06/05 04:52:17;;;;;;;5.50;5.10;;;;;;;19.72;72.83;96042.06;4999389;28;20215;-84
2021/06/05 04:54:43;;;;;;;5.25;4.80;;;;;;;19.71;72.88;96045.69;4999949;28;20199;-83
2021/06/05 04:57:09;;;;;;;5.68;5.18;;;;;;;19.69;73.08;96040.69;4999005;28;20702;-84
2021/06/05 04:59:35;;;;;;;5.50;5.00;;;;;;;19.71;73.06;96040.47;4999400;28;20673;-85
2021/06/05 05:02:01;;;;;;;5.88;5.32;;;;;;;19.81;73.09;96035.53;4999152;28;20219;-83
2021/06/05 05:04:27;;;;;;;4.93;4.47;;;;;;;19.90;73.01;96029.75;4999733;28;20203;-84
2021/06/05 05:06:55;;;;;;;6.78;5.13;;;;;;;19.90;72.46;96034.16;4999125;28;20226;-85
2021/06/05 05:09:20;;;;;;;4.80;4.40;;;;;;;19.92;71.90;96032.13;4999268;28;20214;-81
2021/06/05 05:11:46;;;;;;;4.50;4.05;;;;;;;19.92;71.38;96024.28;4999254;28;20199;-82
2021/06/05 05:14:13;;;;;;;5.25;4.28;;;;;;;19.95;72.00;96021.22;4998787;28;20270;-84
2021/06/05 05:16:39;;;;;;;4.38;3.97;;;;;;;20.08;71.72;96015.78;4999318;28;20230;-83
2021/06/05 05:19:05;;;;;;;4.68;4.28;;;;;;;20.18;71.49;96016.06;4998797;28;20429;-83
2021/06/05 05:21:32;;;;;;;3.60;3.30;;;;;;;20.23;71.32;96018.75;4998536;28;20222;-84
2021/06/05 05:23:59;;;;;;;5.75;3.60;;;;;;;20.30;70.88;96014.22;4999673;28;20207;-83
2021/06/05 05:26:26;;;;;;;3.70;3.40;;;;;;;20.39;70.67;96021.78;4999307;28;20227;-84
2021/06/05 05:28:54;;;;;;;2.90;2.70;;;;;;;20.45;70.26;96021.66;4998640;28;20204;-82
2021/06/05 05:31:22;;;;;;;3.78;3.05;;;;;;;20.26;69.47;96020.94;4980748;28;20224;-82
2021/06/05 05:33:49;;;;;;;3.10;2.90;;;;;;;20.41;70.15;96017.09;4998539;28;20239;-83
2021/06/05 05:36:18;;;;;;;2.90;2.70;;;;;;;20.45;70.08;96015.63;4998104;28;20234;-84
2021/06/05 05:38:44;;;;;;;3.28;2.85;;;;;;;20.43;69.19;96017.66;4992896;28;20206;-85
2021/06/05 05:41:13;;;;;;;4.13;3.10;;;;;;;20.51;68.76;96010.28;4998296;28;20227;-85
2021/06/05 05:43:39;;;;;;;4.80;2.67;;;;;;;20.55;68.69;96021.09;4998213;28;20206;-83
2021/06/05 05:46:06;;;;;;;3.35;2.40;;;;;;;20.63;68.41;96013.69;4998767;28;20199;-84
2021/06/05 05:48:32;;;;;;;3.10;2.33;;;;;;;20.75;68.48;96012.91;4997752;28;20291;-82
2021/06/05 05:50:58;;;;;;;2.80;2.30;;;;;;;20.89;67.94;96015.03;4998466;28;20219;-83
2021/06/05 05:53:24;;;;;;;2.47;2.25;;;;;;;20.86;66.75;96005.00;4998570;28;20207;-84
2021/06/05 05:55:50;;;;;;;3.03;2.20;;;;;;;20.87;66.63;96004.00;4997589;28;20208;-85
2021/06/05 05:58:20;;;;;;;2.35;2.00;;;;;;;20.83;66.61;96005.47;4992469;28;20586;-84
2021/06/05 06:00:48;;;;;;;2.55;1.80;;;;;;;20.95;65.96;96003.66;4994271;28;20223;-83
2021/06/05 06:03:15;;;;;;;1.92;1.83;;;;;;;20.94;66.02;96003.88;4996812;28;20614;-84
2021/06/05 06:05:41;;;;;;;3.63;1.90;;;;;;;21.04;66.37;96009.31;4997299;28;20202;-85
2021/06/05 06:08:10;;;;;;;2.00;1.80;;;;;;;21.18;66.51;96013.25;4997997;28;20234;-84
2021/06/05 06:10:37;;;;;;;2.42;1.75;;;;;;;21.17;66.04;96013.47;4997933;28;20196;-85
2021/06/05 06:13:03;;;;;;;2.30;2.10;;;;;;;21.27;65.82;96014.50;4998355;28;20235;-84
2021/06/05 06:15:31;;;;;;;2.72;1.90;;;;;;;21.29;64.65;96015.06;4997413;28;20594;-84
2021/06/05 06:17:57;;;;;;;1.88;1.70;;;;;;;21.38;64.06;96011.03;4995997;28;20227;-83
2021/06/05 06:20:26;;;;;;;2.40;1.80;;;;;;;21.37;63.91;96016.50;4997246;28;20697;-83
2021/06/05 06:22:53;;;;;;;1.52;1.42;;;;;;;21.46;64.03;96022.19;4997426;28;20217;-84
2021/06/05 06:25:20;;;;;;;2.47;1.70;;;;;;;21.55;63.87;96015.56;4997455;28;20206;-84
2021/06/05 06:27:47;;;;;;;2.78;1.42;;;;;;;21.53;63.75;96021.03;4996763;28;20735;-84
2021/06/05 06:30:15;;;;;;;1.90;1.70;;;;;;;21.43;63.55;96020.84;4996783;28;20195;-84
2021/06/05 06:32:42;;;;;;;1.27;1.20;;;;;;;21.43;62.63;96022.66;4996785;28;20231;-85
2021/06/05 06:35:09;;;;;;;1.40;1.30;;;;;;;21.54;63.05;96006.09;4997441;28;20764;-85
2021/06/05 06:37:35;;;;;;;3.35;1.35;;;;;;;21.70;62.70;96014.00;4995033;28;20231;-83
2021/06/05 06:40:01;;;;;;;2.15;1.23;;;;;;;21.78;62.17;96006.78;4996289;28;20214;-84
2021/06/05 06:42:27;;;;;;;1.85;1.42;;;;;;;21.79;60.88;96009.16;4997025;28;20783;-84
2021/06/05 06:44:53;;;;;;;1.40;1.30;;;;;;;21.88;60.68;96010.38;4998057;28;20203;-85
2021/06/05 06:47:19;;;;;;;1.33;1.20;;;;;;;21.86;60.15;96009.00;4997903;28;20234;-84
2021/06/05 06:49:47;;;;;;;2.47;1.10;;;;;;;21.92;58.82;96005.47;4997833;28;20203;-84
2021/06/05 06:52:13;;;;;;;1.67;1.15;;;;;;;21.97;59.13;96006.31;4998966;28;20191;-84
2021/06/05 06:54:39;;;;;;;3.40;3.10;;;;;;;22.03;58.90;96010.66;5015829;28;20674;-85
2021/06/05 06:57:06;;;;;;;2.13;1.92;;;;;;;22.08;58.18;96012.56;5021164;28;20231;-84
2021/06/05 06:59:32;;;;;;;1.10;1.00;;;;;;;22.15;58.13;96013.19;5003518;28;20210;-84
2021/06/05 07:01:59;;;;;;;1.58;1.02;;;;;;;22.23;57.78;96018.03;5002487;28;20710;-84
2021/06/05 07:04:25;;;;;;;1.25;1.02;;;;;;;22.33;58.60;96002.44;5002322;28;20207;-84
2021/06/05 07:06:55;;;;;;;1.10;1.00;;;;;;;22.32;57.94;96013.97;5002086;28;20241;-85
2021/06/05 07:09:21;;;;;;;1.52;1.23;;;;;;;22.29;57.84;96006.59;5002594;28;20203;-86
2021/06/05 07:11:47;;;;;;;2.17;1.20;;;;;;;22.28;57.30;96006.84;5003191;28;20202;-85
2021/06/05 07:14:13;;;;;;;1.63;1.00;;;;;;;22.29;57.09;96014.47;5003315;28;20214;-84
2021/06/05 07:16:40;;;;;;;1.48;1.20;;;;;;;22.51;57.00;96005.88;5004170;28;20219;-85
2021/06/05 07:19:07;;;;;;;1.42;1.33;;;;;;;22.58;57.00;96011.72;5002914;28;20243;-84
2021/06/05 07:21:33;;;;;;;2.75;2.53;;;;;;;22.59;56.16;96018.56;5002928;28;20220;-85
2021/06/05 07:24:00;;;;;;;2.30;1.25;;;;;;;22.45;55.78;96025.19;5003288;28;20196;-84
2021/06/05 07:26:30;;;;;;;2.25;1.23;;;;;;;22.31;56.66;96016.88;5003352;28;20223;-85
2021/06/05 07:28:58;;;;;;;1.15;1.08;;;;;;;22.47;57.29;96023.94;5003159;28;20203;-85
2021/06/05 07:31:27;;;;;;;1.73;1.30;;;;;;;22.43;57.68;96020.19;5003502;28;20188;-84
2021/06/05 07:33:54;;;;;;;1.33;1.10;;;;;;;22.43;57.96;96017.56;5002365;28;20277;-84
2021/06/05 07:36:24;;;;;;;1.77;1.20;;;;;;;22.56;57.88;96024.28;5001146;28;20224;-84
2021/06/05 07:38:50;;;;;;;2.60;1.95;;;;;;;22.69;57.79;96013.47;4998918;28;20208;-84
2021/06/05 07:41:17;;;;;;;9.68;8.75;;;;;;;22.73;59.16;96006.69;4999077;28;20227;-84
2021/06/05 07:43:43;;;;;;;3.38;3.08;;;;;;;22.90;57.42;96011.94;4998270;28;20892;-85
2021/06/05 07:46:10;;;;;;;2.50;1.58;;;;;;;22.99;57.20;96007.84;4998239;28;20192;-84
2021/06/05 07:48:36;;;;;;;1.17;1.10;;;;;;;23.12;56.83;96009.31;4997305;28;20200;-85
2021/06/05 07:51:04;;;;;;;2.28;1.30;;;;;;;23.14;57.41;96017.75;4999358;28;20702;-85
2021/06/05 07:53:30;;;;;;;1.40;1.30;;;;;;;23.20;56.48;96014.13;5000871;28;20204;-85
2021/06/05 07:55:56;;;;;;;1.13;1.02;;;;;;;23.22;57.19;96017.31;5001061;28;20203;-84
2021/06/05 07:58:23;;;;;;;1.33;1.10;;;;;;;23.19;57.55;96023.84;4998146;28;20239;-84
2021/06/05 08:00:49;;;;;;;1.40;1.20;;;;;;;23.25;57.41;96014.22;4996655;28;20207;-84
2021/06/05 08:03:15;;;;;;;1.85;1.30;;;;;;;23.42;56.46;96020.19;4999544;28;20192;-85
2021/06/05 08:05:41;;;;;;;1.33;1.10;;;;;;;23.55;56.68;96014.56;5001643;28;20801;-85
2021/06/05 08:08:10;;;;;;;1.60;1.25;;;;;;;23.73;56.76;96013.41;5001024;28;20216;-82
2021/06/05 08:10:39;;;;;;;1.30;1.20;;;;;;;23.81;56.86;96015.63;5000483;28;20726;-82
2021/06/05 08:13:05;;;;;;;1.17;1.10;;;;;;;24.07;56.26;96016.59;5001331;28;20207;-83
2021/06/05 08:15:35;;;;;;;1.50;1.25;;;;;;;24.19;54.29;96013.81;5001252;28;20206;-83
2021/06/05 08:18:02;;;;;;;1.10;1.00;;;;;;;24.21;52.72;96014.38;5001781;28;20230;-82
2021/06/05 08:20:31;;;;;;;1.10;0.90;;;;;;;24.24;51.99;96025.22;5002190;28;20214;-82
2021/06/05 08:22:58;;;;;;;9.45;8.45;;;;;;;24.43;52.05;96025.63;5000817;28;20219;-85
2021/06/05 08:25:24;;;;;;;2.22;2.03;;;;;;;24.61;52.31;96022.59;5000442;28;20209;-83
2021/06/05 08:27:50;;;;;;;1.30;1.20;;;;;;;24.66;49.69;96030.50;4999255;28;20231;-85
2021/06/05 08:30:21;;;;;;;1.13;1.00;;;;;;;24.74;49.39;96029.25;4997781;28;20210;-83
2021/06/05 08:32:50;;;;;;;1.65;1.10;;;;;;;24.84;48.87;96028.50;4999460;28;20857;-85
2021/06/05 08:35:16;;;;;;;1.63;1.20;;;;;;;24.78;50.13;96017.16;4999930;28;20215;-85
2021/06/05 08:37:44;;;;;;;1.58;1.00;;;;;;;24.77;50.43;96019.00;4999165;28;20219;-86
2021/06/05 08:40:13;;;;;;;1.40;1.00;;;;;;;24.82;49.65;96015.59;4999713;28;20199;-83
2021/06/05 08:42:47;;;;;;;1.55;1.10;;;;;;;24.85;49.04;96016.91;4997478;28;20219;-84
2021/06/05 08:45:17;;;;;;;1.70;1.00;;;;;;;24.81;48.75;96018.50;5000134;28;20192;-84
2021/06/05 08:47:44;;;;;;;1.00;1.00;;;;;;;24.70;49.11;96015.78;4998484;28;20215;-84
2021/06/05 08:50:15;;;;;;;1.13;1.00;;;;;;;24.52;49.40;96020.66;4998622;28;20206;-84
2021/06/05 08:52:49;;;;;;;1.05;1.05;;;;;;;24.43;49.75;96013.25;4998576;28;20244;-83
2021/06/05 08:55:22;;;;;;;1.65;1.20;;;;;;;24.30;51.77;96021.56;4999015;28;20209;-85
2021/06/05 08:57:52;;;;;;;3.03;2.72;;;;;;;24.31;52.71;96022.34;5000135;28;20223;-83
2021/06/05 09:00:23;;;;;;;2.90;1.50;;;;;;;24.23;52.49;96028.06;4993137;28;20351;-83
2021/06/05 09:02:53;;;;;;;1.45;1.10;;;;;;;24.01;52.73;96015.00;4987071;28;20230;-82
2021/06/05 09:05:24;;;;;;;1.05;1.05;;;;;;;23.90;52.83;96014.09;4999728;28;20218;-81
2021/06/05 09:07:50;;;;;;;1.35;1.20;;;;;;;23.94;53.15;96017.81;4999432;28;20223;-83
2021/06/05 09:10:22;;;;;;;1.27;1.13;;;;;;;23.90;53.35;96016.72;4999673;28;20206;-85
2021/06/05 09:12:48;;;;;;;1.25;1.15;;;;;;;23.95;52.84;96014.16;4987404;28;20199;-83
2021/06/05 09:15:21;;;;;;;2.75;1.63;;;;;;;23.99;52.27;96014.44;4999472;28;20211;-84
2021/06/05 09:17:49;;;;;;;4.55;3.20;;;;;;;24.13;53.38;96020.88;4998038;28;20216;-84
2021/06/05 09:20:26;;;;;;;2.00;1.50;;;;;;;24.44;50.69;96022.72;4998788;28;20210;-83
2021/06/05 09:22:53;;;;;;;2.10;1.90;;;;;;;24.60;50.98;96025.47;4998287;28;20246;-85
2021/06/05 09:25:31;;;;;;;3.40;2.20;;;;;;;24.87;49.55;96023.50;4999059;28;20207;-85
2021/06/05 09:28:17;;;;;;;1.65;1.00;;;;;;;24.95;50.20;96015.16;4997739;28;20637;-85
2021/06/05 09:30:45;;;;;;;1.00;0.85;;;;;;;25.22;49.28;96022.09;4998531;28;20222;-84
2021/06/05 09:33:13;;;;;;;1.10;1.00;;;;;;;25.49;48.82;96022.72;4997954;28;20257;-85
2021/06/05 09:35:43;;;;;;;0.80;0.80;;;;;;;25.65;48.10;96034.16;4999041;28;20279;-86
2021/06/05 09:38:18;;;;;;;1.10;0.90;;;;;;;25.54;48.86;96030.66;4999254;28;20247;-88
2021/06/05 09:41:05;;;;;;;0.90;0.90;;;;;;;25.30;48.31;96027.69;4999296;28;20198;-82
2021/06/05 09:43:32;;;;;;;1.10;0.70;;;;;;;25.02;48.03;96028.09;4998036;28;20199;-85
2021/06/05 09:46:21;;;;;;;0.80;0.80;;;;;;;24.88;47.86;96029.56;5003914;28;20199;-85
2021/06/05 09:48:49;;;;;;;1.00;0.90;;;;;;;24.83;47.05;96019.78;5003072;28;20198;-84
2021/06/05 09:51:35;;;;;;;1.02;0.90;;;;;;;24.78;46.98;96022.41;5005058;28;20234;-85
2021/06/05 09:54:08;;;;;;;0.80;0.80;;;;;;;24.63;47.25;96017.84;5006321;28;20207;-84
2021/06/05 09:56:36;;;;;;;0.80;0.80;;;;;;;24.66;48.14;96014.69;5006363;28;20215;-82
2021/06/05 09:59:16;;;;;;;1.38;1.00;;;;;;;24.72;48.38;96012.91;5003798;28;20231;-82
2021/06/05 10:01:55;;;;;;;1.58;1.00;;;;;;;24.79;49.57;96019.53;5002945;28;20615;-83
2021/06/05 10:04:22;;;;;;;0.90;0.80;;;;;;;24.88;47.21;96011.13;5000780;28;20257;-85
2021/06/05 10:06:54;;;;;;;1.88;1.08;;;;;;;24.98;47.25;96012.00;5001918;28;20294;-84
2021/06/05 10:09:45;;;;;;;0.95;0.90;;;;;;;25.25;47.32;96003.94;5001644;28;20206;-83
2021/06/05 10:12:19;;;;;;;0.95;0.90;;;;;;;25.66;47.12;96007.50;4987003;28;20196;-86
2021/06/05 10:14:55;;;;;;;1.55;1.00;;;;;;;25.98;47.46;96006.50;5000821;28;20334;-83
2021/06/05 10:17:30;;;;;;;1.38;0.88;;;;;;;26.18;45.33;96009.13;5010289;28;20729;-84
2021/06/05 10:20:02;;;;;;;1.42;1.10;;;;;;;26.27;43.82;96012.84;5004845;28;20199;-84
2021/06/05 10:22:40;;;;;;;0.90;0.90;;;;;;;26.58;44.38;96007.53;5000777;28;20238;-84
2021/06/05 10:25:17;;;;;;;0.98;0.90;;;;;;;26.73;44.69;96002.25;4995185;28;20207;-86
2021/06/05 10:27:46;;;;;;;2.85;1.00;;;;;;;26.91;43.31;95992.94;5000368;28;20642;-86
2021/06/05 10:30:29;;;;;;;1.42;0.80;;;;;;;26.87;44.24;95999.81;4999962;28;20203;-85
2021/06/05 10:32:58;;;;;;;0.95;0.88;;;;;;;26.90;43.02;96000.06;5000157;28;20235;-85
2021/06/05 10:35:29;;;;;;;1.02;0.90;;;;;;;26.99;41.38;95995.81;5000499;28;20200;-86
2021/06/05 10:38:04;;;;;;;0.95;0.90;;;;;;;27.07;43.36;95986.56;4999259;28;20226;-85
2021/06/05 10:40:31;;;;;;;1.08;0.80;;;;;;;26.69;43.11;95985.34;5000237;28;20203;-86
2021/06/05 10:42:57;;;;;;;1.17;1.00;;;;;;;26.31;44.10;95994.66;4999962;28;20220;-85
2021/06/05 10:45:28;;;;;;;1.15;0.90;;;;;;;25.90;43.73;95999.09;4999933;28;20211;-86
2021/06/05 10:47:59;;;;;;;2.97;1.10;;;;;;;26.13;45.72;95990.66;4998968;28;20219;-86
2021/06/05 10:50:28;;;;;;;3.03;1.02;;;;;;;26.35;45.54;95988.56;4999355;28;20216;-86
2021/06/05 10:53:00;;;;;;;1.83;0.80;;;;;;;26.50;44.33;95987.75;4999939;28;20199;-86
2021/06/05 10:55:34;;;;;;;1.00;1.00;;;;;;;26.47;45.57;95983.00;5000244;28;20275;-85
2021/06/05 10:58:20;;;;;;;1.23;1.00;;;;;;;26.68;45.53;95987.19;4998584;28;20218;-85
2021/06/05 11:00:48;;;;;;;1.58;1.00;;;;;;;26.84;46.80;95982.63;4999443;28;20260;-85
2021/06/05 11:03:53;;;;;;;1.63;1.00;;;;;;;26.59;46.03;95978.22;4997765;28;20215;-84
2021/06/05 11:06:24;;;;;;;0.82;0.80;;;;;;;26.20;47.35;95975.34;4995006;28;20242;-87
2021/06/05 11:08:54;;;;;;;0.88;0.88;;;;;;;25.96;47.23;95983.03;4999129;28;20234;-85
2021/06/05 11:11:40;;;;;;;1.02;0.90;;;;;;;25.76;47.22;95983.00;5000535;28;20202;-86
2021/06/05 11:14:25;;;;;;;1.30;1.20;;;;;;;25.86;47.53;95975.09;4998135;28;20278;-84
2021/06/05 11:17:29;;;;;;;1.15;1.15;;;;;;;26.02;46.80;95981.16;4984963;28;20223;-86
2021/06/05 11:20:38;;;;;;;1.70;1.17;;;;;;;26.38;47.51;95972.19;4997650;28;20206;-85
2021/06/05 11:23:23;;;;;;;1.20;1.02;;;;;;;26.48;46.98;95964.25;4998251;28;20283;-85
2021/06/05 11:25:52;;;;;;;1.20;1.10;;;;;;;26.70;46.49;95953.38;4979638;28;20690;-85
2021/06/05 11:28:24;;;;;;;2.60;1.20;;;;;;;26.77;46.48;95964.41;4989157;28;20291;-85
2021/06/05 11:30:51;;;;;;;1.10;1.00;;;;;;;26.90;45.47;95960.44;4999081;28;20200;-85
2021/06/05 11:33:39;;;;;;;2.45;1.45;;;;;;;27.02;45.75;95960.94;4999031;28;20583;-86
2021/06/05 11:36:38;;;;;;;1.42;1.20;;;;;;;26.96;45.34;95955.94;4998907;28;20214;-85
2021/06/05 11:39:07;;;;;;;1.80;1.50;;;;;;;26.44;45.98;95967.69;4993848;28;20290;-83
2021/06/05 11:41:49;;;;;;;2.97;1.25;;;;;;;26.05;46.24;95973.50;4995069;28;20687;-84
2021/06/05 11:44:28;;;;;;;5.78;1.45;;;;;;;25.72;46.95;95971.38;4995208;28;20203;-84